createdAt,value
2022-09-28T00:00:11.853Z,3.92
2022-09-28T00:02:42.470Z,5.18
2022-09-28T00:05:12.661Z,4.20
2022-09-28T00:07:41.975Z,4.40
2022-09-28T00:10:12.392Z,4.25
2022-09-28T00:12:40.388Z,4.32
2022-09-28T00:15:09.419Z,4.80
2022-09-28T00:17:37.347Z,4.25
2022-09-28T00:20:06.312Z,4.32
2022-09-28T00:22:34.209Z,4.20
2022-09-28T00:25:02.139Z,4.43
2022-09-28T00:27:31.399Z,4.55
2022-09-28T00:29:59.947Z,4.45
2022-09-28T00:32:28.556Z,4.38
2022-09-28T00:34:57.632Z,5.15
2022-09-28T00:37:25.466Z,4.25
2022-09-28T00:39:53.415Z,4.28
2022-09-28T00:42:23.415Z,4.13
2022-09-28T00:44:53.627Z,4.40
2022-09-28T00:47:49.812Z,3.72
2022-09-28T00:50:23.132Z,4.00
2022-09-28T00:52:54.512Z,4.13
2022-09-28T00:55:28.023Z,4.55
2022-09-28T00:57:58.908Z,3.90
2022-09-28T01:00:28.417Z,4.63
2022-09-28T01:02:56.531Z,4.18
2022-09-28T01:05:24.951Z,4.28
2022-09-28T01:07:52.874Z,5.00
2022-09-28T01:10:20.724Z,4.53
2022-09-28T01:12:48.623Z,5.03
2022-09-28T01:15:16.769Z,5.07
2022-09-28T01:17:55.290Z,5.68
2022-09-28T01:23:18.991Z,5.95
2022-09-28T01:25:52.514Z,6.40
2022-09-28T01:28:22.809Z,6.57
2022-09-28T01:30:58.012Z,5.57
2022-09-28T01:33:29.097Z,6.00
2022-09-28T01:36:00.770Z,6.95
2022-09-28T01:38:31.422Z,8.23
2022-09-28T01:41:00.050Z,6.75
2022-09-28T01:43:31.529Z,7.18
2022-09-28T01:46:02.036Z,7.57
2022-09-28T01:48:33.442Z,7.53
2022-09-28T01:51:06.828Z,8.18
2022-09-28T01:53:38.459Z,7.90
2022-09-28T01:56:12.515Z,9.52
2022-09-28T01:58:45.747Z,8.25
2022-09-28T02:01:17.211Z,9.02
2022-09-28T02:03:50.216Z,9.63
2022-09-28T02:08:51.891Z,8.85
2022-09-28T02:11:21.760Z,10.18
2022-09-28T02:13:56.784Z,9.57
2022-09-28T02:16:31.403Z,10.48
2022-09-28T02:18:59.538Z,10.00
2022-09-28T02:21:29.237Z,10.40
2022-09-28T02:23:59.771Z,10.88
2022-09-28T02:26:31.671Z,11.07
2022-09-28T02:29:01.123Z,10.93
2022-09-28T02:31:29.426Z,10.13
2022-09-28T02:33:58.558Z,10.38
2022-09-28T02:36:27.070Z,10.85
2022-09-28T02:38:55.334Z,11.48
2022-09-28T02:41:31.558Z,10.95
2022-09-28T02:44:08.643Z,11.25
2022-09-28T02:46:43.451Z,11.73
2022-09-28T02:49:26.429Z,11.85
2022-09-28T02:52:06.637Z,11.45
2022-09-28T02:54:52.751Z,11.88
2022-09-28T02:57:29.380Z,11.73
2022-09-28T03:00:05.541Z,11.00
2022-09-28T03:02:36.683Z,10.98
2022-09-28T03:05:13.474Z,11.52
2022-09-28T03:07:44.851Z,12.18
2022-09-28T03:10:16.738Z,11.63
2022-09-28T03:12:46.884Z,11.73
2022-09-28T03:15:22.564Z,11.48
2022-09-28T03:17:50.726Z,10.85
2022-09-28T03:20:19.024Z,11.82
2022-09-28T03:23:05.927Z,11.13
2022-09-28T03:25:34.883Z,10.52
2022-09-28T03:28:03.210Z,10.80
2022-09-28T03:30:36.135Z,12.17
2022-09-28T03:33:04.395Z,11.65
2022-09-28T03:35:33.637Z,11.88
2022-09-28T03:38:01.509Z,11.48
2022-09-28T03:40:31.753Z,11.82
2022-09-28T03:43:01.136Z,11.73
2022-09-28T03:45:29.255Z,11.57
2022-09-28T03:47:58.726Z,11.70
2022-09-28T03:50:26.635Z,12.43
2022-09-28T03:52:54.535Z,11.68
2022-09-28T03:55:22.392Z,11.15
2022-09-28T03:57:55.635Z,11.38
2022-09-28T04:00:23.874Z,11.15
2022-09-28T04:02:51.858Z,11.38
2022-09-28T04:05:21.077Z,11.85
2022-09-28T04:07:48.998Z,11.90
2022-09-28T04:10:17.281Z,11.43
2022-09-28T04:12:45.906Z,12.43
2022-09-28T04:15:15.615Z,11.00
2022-09-28T04:17:44.816Z,11.70
2022-09-28T04:20:27.251Z,12.87
2022-09-28T04:23:04.280Z,11.80
2022-09-28T04:25:32.297Z,11.75
2022-09-28T04:28:17.452Z,11.23
2022-09-28T04:30:47.517Z,11.80
2022-09-28T04:33:15.370Z,11.52
2022-09-28T04:35:44.604Z,12.45
2022-09-28T04:38:12.515Z,12.75
2022-09-28T04:40:41.893Z,12.68
2022-09-28T04:43:09.769Z,12.75
2022-09-28T04:45:37.741Z,12.60
2022-09-28T04:48:09.662Z,12.93
2022-09-28T04:50:55.822Z,11.25
2022-09-28T04:53:24.269Z,12.20
2022-09-28T04:55:59.490Z,11.88
2022-09-28T04:58:28.130Z,11.80
2022-09-28T05:00:59.815Z,12.52
2022-09-28T05:03:51.219Z,12.10
2022-09-28T05:06:35.858Z,12.20
2022-09-28T05:09:06.944Z,12.02
2022-09-28T05:11:34.774Z,11.60
2022-09-28T05:14:03.088Z,12.30
2022-09-28T05:16:33.654Z,12.98
2022-09-28T05:19:20.379Z,12.70
2022-09-28T05:21:49.815Z,12.57
2022-09-28T05:24:17.737Z,13.05
2022-09-28T05:26:51.002Z,13.48
2022-09-28T05:29:19.755Z,12.77
2022-09-28T05:31:50.286Z,11.90
2022-09-28T05:34:23.697Z,12.52
2022-09-28T05:36:52.978Z,13.57
2022-09-28T05:39:21.076Z,12.68
2022-09-28T05:41:48.963Z,11.98
2022-09-28T05:44:16.982Z,12.77
2022-09-28T05:46:45.313Z,13.63
2022-09-28T05:49:13.975Z,14.77
2022-09-28T05:51:41.824Z,12.82
2022-09-28T05:54:11.810Z,12.43
2022-09-28T05:56:42.801Z,12.57
2022-09-28T05:59:12.065Z,12.10
2022-09-28T06:01:40.172Z,13.05
2022-09-28T06:04:10.415Z,13.52
2022-09-28T06:06:38.832Z,12.30
2022-09-28T06:09:07.110Z,12.13
2022-09-28T06:11:53.367Z,10.75
2022-09-28T06:14:28.571Z,12.18
2022-09-28T06:16:56.454Z,12.02
2022-09-28T06:19:24.410Z,11.45
2022-09-28T06:22:10.651Z,11.32
2022-09-28T06:24:45.988Z,11.20
2022-09-28T06:27:15.211Z,10.93
2022-09-28T06:29:43.415Z,10.30
2022-09-28T06:32:12.357Z,10.68
2022-09-28T06:34:42.764Z,10.38
2022-09-28T06:37:10.705Z,10.52
2022-09-28T06:39:38.624Z,9.52
2022-09-28T06:42:06.820Z,10.95
2022-09-28T06:44:54.490Z,9.98
2022-09-28T06:47:43.390Z,10.50
2022-09-28T06:50:35.884Z,9.15
2022-09-28T06:53:28.210Z,9.63
2022-09-28T06:56:03.288Z,9.82
2022-09-28T06:58:32.294Z,9.25
2022-09-28T07:01:02.493Z,8.98
2022-09-28T07:03:37.262Z,9.20
2022-09-28T07:06:47.942Z,8.40
2022-09-28T07:09:37.291Z,7.70
2022-09-28T07:12:13.399Z,7.93
2022-09-28T07:15:02.332Z,8.80
2022-09-28T07:17:35.334Z,8.07
2022-09-28T07:20:18.443Z,8.40
2022-09-28T07:22:47.905Z,8.27
2022-09-28T07:25:20.330Z,7.50
2022-09-28T07:28:01.484Z,7.53
2022-09-28T07:31:04.993Z,8.30
2022-09-28T07:34:00.557Z,7.57
2022-09-28T07:39:03.854Z,7.65
2022-09-28T07:41:33.450Z,7.10
2022-09-28T07:44:06.496Z,6.57
2022-09-28T07:46:36.910Z,6.75
2022-09-28T07:49:25.456Z,6.72
2022-09-28T07:52:14.273Z,5.78
2022-09-28T07:55:07.514Z,6.30
2022-09-28T07:57:56.300Z,6.25
2022-09-28T08:00:48.349Z,5.68
2022-09-28T08:03:18.006Z,6.22
2022-09-28T08:05:48.047Z,5.63
2022-09-28T08:08:16.266Z,5.95
2022-09-28T08:10:47.295Z,5.82
2022-09-28T08:13:33.878Z,6.10
2022-09-28T08:16:34.223Z,6.30
2022-09-28T08:19:12.299Z,5.88
2022-09-28T08:21:46.182Z,5.13
2022-09-28T08:24:16.528Z,4.30
2022-09-28T08:26:45.442Z,4.65
2022-09-28T08:29:16.916Z,4.57
2022-09-28T08:32:01.590Z,4.33
2022-09-28T08:34:36.690Z,4.35
2022-09-28T08:37:09.712Z,4.07
2022-09-28T08:40:09.420Z,4.40
2022-09-28T08:42:48.984Z,3.80
2022-09-28T08:45:52.352Z,4.03
2022-09-28T08:49:13.530Z,3.17
2022-09-28T08:52:00.719Z,3.35
2022-09-28T08:54:56.718Z,3.58
2022-09-28T08:57:35.275Z,3.92
2022-09-28T09:00:09.596Z,3.75
2022-09-28T09:02:40.541Z,3.63
2022-09-28T09:05:15.922Z,3.17
2022-09-28T09:08:23.353Z,3.75
2022-09-28T09:10:54.198Z,3.67
2022-09-28T09:13:43.183Z,3.92
2022-09-28T09:16:19.024Z,3.67
2022-09-28T09:19:17.395Z,4.03
2022-09-28T09:22:11.708Z,3.50
2022-09-28T09:24:44.807Z,3.60
2022-09-28T09:27:36.783Z,3.50
2022-09-28T09:30:07.548Z,3.60
2022-09-28T09:35:23.410Z,2.10
2022-09-28T09:38:07.058Z,3.00
2022-09-28T09:41:00.807Z,3.08
2022-09-28T09:44:19.955Z,2.95
2022-09-28T09:47:00.693Z,2.70
2022-09-28T09:49:40.375Z,2.50
2022-09-28T09:52:14.608Z,2.65
2022-09-28T09:54:45.783Z,3.08
2022-09-28T09:57:30.376Z,3.10
2022-09-28T10:00:28.996Z,2.50
2022-09-28T10:03:18.366Z,2.72
2022-09-28T10:05:49.895Z,2.70
2022-09-28T10:08:19.949Z,2.47
2022-09-28T10:10:50.847Z,2.38
2022-09-28T10:13:21.000Z,3.20
2022-09-28T10:15:51.767Z,2.65
2022-09-28T10:18:30.802Z,2.28
2022-09-28T10:21:14.267Z,1.92
2022-09-28T10:24:03.260Z,2.40
2022-09-28T10:26:36.394Z,2.10
2022-09-28T10:29:07.187Z,2.30
2022-09-28T10:31:38.432Z,2.20
2022-09-28T10:34:14.796Z,2.13
2022-09-28T10:36:55.378Z,2.10
2022-09-28T10:39:36.618Z,2.00
2022-09-28T10:42:07.799Z,2.30
2022-09-28T10:44:49.936Z,2.35
2022-09-28T10:47:48.687Z,1.70
2022-09-28T10:50:22.422Z,2.38
2022-09-28T10:52:54.656Z,2.60
2022-09-28T10:55:42.495Z,2.00
2022-09-28T10:58:25.696Z,2.22
2022-09-28T11:00:54.541Z,2.03
2022-09-28T11:03:27.052Z,2.05
2022-09-28T11:05:59.579Z,2.25
2022-09-28T11:08:31.297Z,2.08
2022-09-28T11:11:10.211Z,1.98
2022-09-28T11:13:43.647Z,2.05
2022-09-28T11:16:29.616Z,1.65
2022-09-28T11:19:05.207Z,1.90
2022-09-28T11:21:43.103Z,2.00
2022-09-28T11:24:21.134Z,1.88
2022-09-28T11:26:52.531Z,1.70
2022-09-28T11:29:26.751Z,1.42
2022-09-28T11:32:16.101Z,1.73
2022-09-28T11:35:25.997Z,1.55
2022-09-28T11:38:19.602Z,1.45
2022-09-28T11:41:32.471Z,1.48
2022-09-28T11:44:16.229Z,1.70
2022-09-28T11:46:52.519Z,2.00
2022-09-28T11:49:28.646Z,2.25
2022-09-28T11:52:00.838Z,1.95
2022-09-28T11:54:33.705Z,2.20
2022-09-28T11:57:05.039Z,2.10
2022-09-28T11:59:35.626Z,2.08
2022-09-28T12:02:11.121Z,1.70
2022-09-28T12:04:46.449Z,1.75
2022-09-28T12:07:19.950Z,1.90
2022-09-28T12:09:52.989Z,1.90
2022-09-28T12:12:26.029Z,1.70
2022-09-28T12:14:58.613Z,1.45
2022-09-28T12:17:30.084Z,2.78
2022-09-28T12:20:02.268Z,3.08
2022-09-28T12:22:36.041Z,3.47
2022-09-28T12:25:05.457Z,4.45
2022-09-28T12:27:39.047Z,4.63
2022-09-28T12:30:14.147Z,4.40
2022-09-28T12:32:45.586Z,4.13
2022-09-28T12:35:16.133Z,4.47
2022-09-28T12:37:58.632Z,4.45
2022-09-28T12:40:37.228Z,4.40
2022-09-28T12:43:21.358Z,4.90
2022-09-28T12:46:12.357Z,5.47
2022-09-28T12:50:20.136Z,4.70
2022-09-28T12:52:00.096Z,4.03
2022-09-28T12:54:44.216Z,4.45
2022-09-28T12:57:39.298Z,3.92
2022-09-28T13:00:10.518Z,5.38
2022-09-28T13:03:00.835Z,5.97
2022-09-28T13:05:41.306Z,5.15
2022-09-28T13:08:12.188Z,4.70
2022-09-28T13:10:42.982Z,4.47
2022-09-28T13:13:23.129Z,5.38
2022-09-28T13:15:56.360Z,4.82
2022-09-28T13:18:29.275Z,4.60
2022-09-28T13:23:35.727Z,4.95
2022-09-28T13:26:23.809Z,4.43
2022-09-28T13:28:54.738Z,4.45
2022-09-28T13:31:30.899Z,4.65
2022-09-28T13:34:01.469Z,4.50
2022-09-28T13:36:37.911Z,4.50
2022-09-28T13:39:48.685Z,4.55
2022-09-28T13:42:41.504Z,3.70
2022-09-28T13:45:18.891Z,3.72
2022-09-28T13:47:59.656Z,4.30
2022-09-28T13:50:39.511Z,3.72
2022-09-28T13:53:16.401Z,3.55
2022-09-28T13:55:54.755Z,3.65
2022-09-28T13:58:26.097Z,4.00
2022-09-28T14:00:57.890Z,3.92
2022-09-28T14:03:28.309Z,3.95
2022-09-28T14:06:09.577Z,4.03
2022-09-28T14:08:45.618Z,3.88
2022-09-28T14:11:26.343Z,7.93
2022-09-28T14:14:05.837Z,5.13
2022-09-28T14:16:35.198Z,4.45
2022-09-28T14:19:06.958Z,4.20
2022-09-28T14:22:01.696Z,4.32
2022-09-28T14:24:46.207Z,2.70
2022-09-28T14:27:42.780Z,2.33
2022-09-28T14:30:26.884Z,2.03
2022-09-28T14:32:57.508Z,2.00
2022-09-28T14:35:29.665Z,2.20
2022-09-28T14:38:18.799Z,2.85
2022-09-28T14:41:10.580Z,4.80
2022-09-28T14:43:53.923Z,2.80
2022-09-28T14:46:37.392Z,3.08
2022-09-28T14:49:07.284Z,2.72
2022-09-28T14:52:06.671Z,2.95
2022-09-28T14:54:45.264Z,3.05
2022-09-28T14:57:33.973Z,2.90
2022-09-28T15:00:10.493Z,2.80
2022-09-28T15:02:40.291Z,2.33
2022-09-28T15:05:17.193Z,1.90
2022-09-28T15:07:47.960Z,1.90
2022-09-28T15:10:27.736Z,1.85
2022-09-28T15:12:57.201Z,2.30
2022-09-28T15:15:32.194Z,2.55
2022-09-28T15:18:16.415Z,2.67
2022-09-28T15:20:47.110Z,3.10
2022-09-28T15:23:34.810Z,3.15
2022-09-28T15:26:04.102Z,3.00
2022-09-28T15:28:32.102Z,2.80
2022-09-28T15:31:01.130Z,3.10
2022-09-28T15:33:49.324Z,4.00
2022-09-28T15:36:21.127Z,3.78
2022-09-28T15:38:56.844Z,3.38
2022-09-28T15:41:25.736Z,3.38
2022-09-28T15:44:23.494Z,3.05
2022-09-28T15:46:52.135Z,3.25
2022-09-28T15:49:26.936Z,3.08
2022-09-28T15:51:56.536Z,3.63
2022-09-28T15:54:26.319Z,3.00
2022-09-28T15:56:57.731Z,2.95
2022-09-28T15:59:31.838Z,3.15
2022-09-28T16:02:08.277Z,3.00
2022-09-28T16:04:40.545Z,3.30
2022-09-28T16:07:24.381Z,2.80
2022-09-28T16:10:01.626Z,3.15
2022-09-28T16:12:41.208Z,3.08
2022-09-28T16:15:18.140Z,3.10
2022-09-28T16:17:51.029Z,3.47
2022-09-28T16:22:50.365Z,3.45
2022-09-28T16:25:23.001Z,3.58
2022-09-28T16:27:51.827Z,3.33
2022-09-28T16:30:24.114Z,3.72
2022-09-28T16:32:54.213Z,3.03
2022-09-28T16:35:26.517Z,2.85
2022-09-28T16:38:03.397Z,3.97
2022-09-28T16:40:32.502Z,3.50
2022-09-28T16:43:03.055Z,3.10
2022-09-28T16:45:31.131Z,3.47
2022-09-28T16:47:59.015Z,3.40
2022-09-28T16:50:28.223Z,3.40
2022-09-28T16:53:27.607Z,3.53
2022-09-28T16:55:55.543Z,3.38
2022-09-28T16:58:25.074Z,3.95
2022-09-28T17:00:54.534Z,4.18
2022-09-28T17:03:23.380Z,3.90
2022-09-28T17:05:53.538Z,3.78
2022-09-28T17:08:22.551Z,5.13
2022-09-28T17:11:14.519Z,5.55
2022-09-28T17:13:41.503Z,5.00
2022-09-28T17:16:13.134Z,4.93
2022-09-28T17:18:41.261Z,5.60
2022-09-28T17:21:15.666Z,6.53
2022-09-28T17:23:43.739Z,5.97
2022-09-28T17:26:18.547Z,6.45
2022-09-28T17:28:46.755Z,6.57
2022-09-28T17:31:16.666Z,6.57
2022-09-28T17:33:44.880Z,6.57
2022-09-28T17:36:16.457Z,5.82
2022-09-28T17:38:44.919Z,6.07
2022-09-28T17:41:16.807Z,6.95
2022-09-28T17:43:47.434Z,6.90
2022-09-28T17:46:26.310Z,6.85
2022-09-28T17:48:57.514Z,6.00
2022-09-28T17:51:27.274Z,6.60
2022-09-28T17:53:56.113Z,5.85
2022-09-28T17:56:27.489Z,6.63
2022-09-28T17:59:00.593Z,6.05
2022-09-28T18:01:33.746Z,6.30
2022-09-28T18:04:02.534Z,6.40
2022-09-28T18:06:33.511Z,6.60
2022-09-28T18:09:01.843Z,6.30
2022-09-28T18:11:29.797Z,6.43
2022-09-28T18:13:57.753Z,6.40
2022-09-28T18:16:27.796Z,5.93
2022-09-28T18:18:55.876Z,6.30
2022-09-28T18:21:23.806Z,6.57
2022-09-28T18:23:53.058Z,5.90
2022-09-28T18:26:20.923Z,6.13
2022-09-28T18:28:48.780Z,5.82
2022-09-28T18:31:19.207Z,6.68
2022-09-28T18:33:48.265Z,6.60
2022-09-28T18:36:16.324Z,6.40
2022-09-28T18:38:44.208Z,6.00
2022-09-28T18:41:16.384Z,6.20
2022-09-28T18:43:48.864Z,6.05
2022-09-28T18:46:17.675Z,6.30
2022-09-28T18:48:47.368Z,5.43
2022-09-28T18:51:15.461Z,6.03
2022-09-28T18:53:43.577Z,6.28
2022-09-28T18:56:14.871Z,6.47
2022-09-28T18:58:43.810Z,5.97
2022-09-28T19:01:29.355Z,6.03
2022-09-28T19:04:00.036Z,5.90
2022-09-28T19:06:28.815Z,6.20
2022-09-28T19:08:57.898Z,6.75
2022-09-28T19:11:27.651Z,6.30
2022-09-28T19:13:56.554Z,5.80
2022-09-28T19:16:26.034Z,6.55
2022-09-28T19:18:54.178Z,6.18
2022-09-28T19:21:22.386Z,5.90
2022-09-28T19:23:53.559Z,5.57
2022-09-28T19:26:23.499Z,6.13
2022-09-28T19:28:53.546Z,5.22
2022-09-28T19:31:22.512Z,5.82
2022-09-28T19:33:50.835Z,5.72
2022-09-28T19:36:21.786Z,6.00
2022-09-28T19:38:49.682Z,5.95
2022-09-28T19:41:39.406Z,6.38
2022-09-28T19:44:13.483Z,6.23
2022-09-28T19:46:41.885Z,6.53
2022-09-28T19:49:11.353Z,6.22
2022-09-28T19:51:51.477Z,6.90
2022-09-28T19:54:33.149Z,6.35
2022-09-28T19:57:07.578Z,6.60
2022-09-28T19:59:37.959Z,7.13
2022-09-28T20:02:07.490Z,6.70
2022-09-28T20:04:35.791Z,6.43
2022-09-28T20:07:04.230Z,6.63
2022-09-28T20:09:32.629Z,6.35
2022-09-28T20:12:00.437Z,6.72
2022-09-28T20:14:33.149Z,6.97
2022-09-28T20:17:05.909Z,6.82
2022-09-28T20:19:33.797Z,6.63
2022-09-28T20:22:02.991Z,7.10
2022-09-28T20:24:31.574Z,6.18
2022-09-28T20:27:01.367Z,6.07
2022-09-28T20:29:31.428Z,6.55
2022-09-28T20:32:00.376Z,6.20
2022-09-28T20:34:29.919Z,7.25
2022-09-28T20:36:57.804Z,7.97
2022-09-28T20:39:26.103Z,7.25
2022-09-28T20:41:56.254Z,7.85
2022-09-28T20:44:24.442Z,7.57
2022-09-28T20:46:52.655Z,7.30
2022-09-28T20:49:20.790Z,7.30
2022-09-28T20:51:50.067Z,7.47
2022-09-28T20:54:18.295Z,7.07
2022-09-28T20:56:48.066Z,7.95
2022-09-28T20:59:16.466Z,7.65
2022-09-28T21:01:44.521Z,7.43
2022-09-28T21:04:12.697Z,7.32
2022-09-28T21:06:42.184Z,7.43
2022-09-28T21:09:13.047Z,7.32
2022-09-28T21:11:41.488Z,7.28
2022-09-28T21:14:10.320Z,8.02
2022-09-28T21:16:38.820Z,8.93
2022-09-28T21:19:06.638Z,7.78
2022-09-28T21:21:34.739Z,8.27
2022-09-28T21:24:03.112Z,7.47
2022-09-28T21:26:32.924Z,7.93
2022-09-28T21:29:02.035Z,8.60
2022-09-28T21:31:32.428Z,8.25
2022-09-28T21:34:00.836Z,7.65
2022-09-28T21:36:28.859Z,7.25
2022-09-28T21:38:56.777Z,7.95
2022-09-28T21:41:24.785Z,8.40
2022-09-28T21:43:54.022Z,8.25
2022-09-28T21:46:21.964Z,8.05
2022-09-28T21:48:53.354Z,8.02
2022-09-28T21:51:21.517Z,8.05
2022-09-28T21:53:49.710Z,8.35
2022-09-28T21:56:17.639Z,8.68
2022-09-28T21:58:45.451Z,8.77
2022-09-28T22:01:16.519Z,8.25
2022-09-28T22:03:46.572Z,8.57
2022-09-28T22:06:15.168Z,7.93
2022-09-28T22:08:43.008Z,8.27
2022-09-28T22:11:12.418Z,7.53
2022-09-28T22:13:42.146Z,8.18
2022-09-28T22:16:10.650Z,7.97
2022-09-28T22:18:40.490Z,8.20
2022-09-28T22:21:10.005Z,7.85
2022-09-28T22:23:38.837Z,7.75
2022-09-28T22:26:08.399Z,8.80
2022-09-28T22:28:36.323Z,7.95
2022-09-28T22:31:04.895Z,8.35
2022-09-28T22:33:32.770Z,8.60
2022-09-28T22:36:02.470Z,8.35
2022-09-28T22:38:32.510Z,7.97
2022-09-28T22:41:00.523Z,8.25
2022-09-28T22:43:28.528Z,7.75
2022-09-28T22:46:03.314Z,7.95
2022-09-28T22:48:31.320Z,8.38
2022-09-28T22:50:59.501Z,8.35
2022-09-28T22:53:29.453Z,8.95
2022-09-28T22:55:57.774Z,8.07
2022-09-28T22:58:26.101Z,8.52
2022-09-28T23:00:53.979Z,8.52
2022-09-28T23:03:21.827Z,8.68
2022-09-28T23:05:54.005Z,8.23
2022-09-28T23:08:21.947Z,8.48
2022-09-28T23:10:51.710Z,8.30
2022-09-28T23:13:19.543Z,8.02
2022-09-28T23:15:55.961Z,8.73
2022-09-28T23:18:23.992Z,8.25
2022-09-28T23:20:55.313Z,8.27
2022-09-28T23:23:23.338Z,8.40
2022-09-28T23:25:52.679Z,7.75
2022-09-28T23:28:22.233Z,8.18
2022-09-28T23:30:50.688Z,8.60
2022-09-28T23:33:20.030Z,8.90
2022-09-28T23:35:48.167Z,8.70
2022-09-28T23:38:17.917Z,8.48
2022-09-28T23:40:46.328Z,8.23
2022-09-28T23:43:15.803Z,9.20
2022-09-28T23:45:43.963Z,9.43
2022-09-28T23:48:14.919Z,8.23
2022-09-28T23:50:43.078Z,9.20
2022-09-28T23:53:11.799Z,8.82
2022-09-28T23:55:39.684Z,8.43
2022-09-28T23:58:07.691Z,7.47
